.
WxDataArchive / Data Records for 2010-06-03
2010-06-02 June 2010 2010-06-04

Data Records for Thursday, 03 June 2010

Time	Temp	Chill	HIndex	Humid	Dewpt	 Wind 	HiWind	WindDir	Rain 	Barom 
-----	----	-----	------	-----	-----	------	------	-------	-----	----- 
00:00	66.0	66.0	66.0	96	64.8	0	0	---	0.00	29.717 
00:05	65.8	65.8	65.8	96	64.6	0	0	---	0.00	29.717 
00:10	65.6	65.6	65.6	96	64.4	0	0	---	0.00	29.717 
00:15	65.6	65.6	65.6	96	64.4	0	0	---	0.00	29.723 
00:20	65.6	65.6	65.6	96	64.4	0	0	---	0.00	29.723 
00:25	65.5	65.5	65.5	96	64.3	0	0	---	0.00	29.723 
00:30	65.3	65.3	65.3	96	64.1	0	0	---	0.00	29.725 
00:35	65.3	65.3	65.3	96	64.1	0	0	---	0.00	29.725 
00:40	65.2	65.2	65.2	96	64.0	0	0	---	0.00	29.725 
00:45	65.0	65.0	65.0	96	63.8	0	0	---	0.00	29.732 
00:50	65.0	65.0	65.0	96	63.8	0	0	---	0.00	29.732 
00:55	65.0	65.0	65.0	96	63.8	0	0	---	0.00	29.732 
01:00	65.0	65.0	65.0	96	63.8	0	0	---	0.00	29.732 
01:05	64.8	64.8	64.8	96	63.6	0	0	---	0.00	29.732 
01:10	64.8	64.8	64.8	96	63.6	0	0	---	0.00	29.732 
01:15	64.7	64.7	64.7	96	63.5	0	0	---	0.00	29.734 
01:20	64.7	64.7	64.7	96	63.5	0	0	---	0.00	29.734 
01:25	64.5	64.5	64.5	96	63.3	0	0	---	0.00	29.734 
01:30	64.5	64.5	64.5	96	63.3	0	0	---	0.00	29.732 
01:35	64.5	64.5	64.5	96	63.3	0	0	---	0.00	29.732 
01:40	64.5	64.5	64.5	96	63.3	0	0	---	0.00	29.732 
01:45	64.3	64.3	64.3	96	63.1	0	0	---	0.00	29.730 
01:50	64.3	64.3	64.3	96	63.1	0	0	---	0.00	29.730 
01:55	64.3	64.3	64.3	96	63.1	0	0	---	0.00	29.730 
02:00	64.3	64.3	64.3	96	63.1	0	0	---	0.00	29.726 
02:05	64.3	64.3	64.3	96	63.1	0	0	---	0.00	29.726 
02:10	64.3	64.3	64.3	96	63.1	0	0	---	0.00	29.726 
02:15	64.2	64.2	64.2	96	63.0	0	0	---	0.00	29.718 
02:20	64.2	64.2	64.2	96	63.0	0	0	---	0.00	29.718 
02:25	64.0	64.0	64.0	96	62.8	0	0	---	0.00	29.718 
02:30	64.0	64.0	64.0	96	62.8	0	0	---	0.00	29.717 
02:35	64.0	64.0	64.0	96	62.8	0	0	---	0.00	29.717 
02:40	63.9	63.9	63.9	96	62.7	0	0	---	0.00	29.717 
02:45	63.9	63.9	63.9	96	62.7	0	0	---	0.00	29.706 
02:50	63.9	63.9	63.9	96	62.7	0	0	---	0.00	29.706 
02:55	63.9	63.9	63.9	96	62.7	0	0	---	0.00	29.706 
03:00	63.9	63.9	63.9	96	62.7	0	0	---	0.00	29.700 
03:05	63.9	63.9	63.9	96	62.7	0	0	---	0.00	29.700 
03:10	63.7	63.7	63.7	96	62.5	0	0	---	0.00	29.700 
03:15	63.7	63.7	63.7	96	62.5	0	0	---	0.00	29.694 
03:20	63.7	63.7	63.7	96	62.5	0	0	---	0.00	29.694 
03:25	63.5	63.5	63.5	96	62.3	0	0	---	0.00	29.694 
03:30	63.5	63.5	63.5	96	62.3	0	0	---	0.00	29.695 
03:35	63.5	63.5	63.5	96	62.3	0	0	---	0.00	29.695 
03:40	63.5	63.5	63.5	96	62.3	0	0	---	0.00	29.695 
03:45	63.4	63.4	63.4	96	62.2	0	0	---	0.00	29.693 
03:50	63.4	63.4	63.4	96	62.2	0	0	---	0.00	29.693 
03:55	63.4	63.4	63.4	96	62.2	0	0	---	0.00	29.693 
04:00	63.2	63.2	63.2	96	62.0	0	0	---	0.00	29.687 
04:05	63.1	63.1	63.1	96	61.9	0	0	---	0.00	29.687 
04:10	63.1	63.1	63.1	96	61.9	0	0	---	0.00	29.687 
04:15	63.1	63.1	63.1	96	61.9	0	0	---	0.00	29.690 
04:20	62.9	62.9	62.9	96	61.7	0	0	---	0.01	29.690 
04:25	62.9	62.9	62.9	96	61.7	0	0	---	0.00	29.690 
04:30	62.7	62.7	62.7	96	61.5	0	0	---	0.00	29.690 
04:35	62.7	62.7	62.7	96	61.5	0	0	---	0.00	29.690 
04:40	62.9	62.9	62.9	96	61.7	0	0	---	0.00	29.690 
04:45	62.7	62.7	62.7	96	61.5	0	0	---	0.00	29.702 
04:50	62.7	62.7	62.7	96	61.5	0	0	---	0.00	29.702 
04:55	62.7	62.7	62.7	96	61.5	0	0	---	0.00	29.702 
05:00	62.6	62.6	62.6	96	61.4	0	0	---	0.00	29.708 
05:05	62.6	62.6	62.6	96	61.4	0	0	---	0.00	29.708 
05:10	62.6	62.6	62.6	96	61.4	0	0	---	0.00	29.708 
05:15	62.6	62.6	62.6	96	61.4	0	0	---	0.00	29.701 
05:20	62.6	62.6	62.6	96	61.4	0	0	---	0.00	29.701 
05:25	62.6	62.6	62.6	96	61.4	0	0	---	0.00	29.701 
05:30	62.6	62.6	62.6	96	61.4	0	0	---	0.00	29.698 
05:35	62.6	62.6	62.6	96	61.4	0	0	---	0.00	29.698 
05:40	62.6	62.6	62.6	96	61.4	0	0	---	0.00	29.698 
05:45	62.6	62.6	62.6	97	61.7	0	0	---	0.00	29.694 
05:50	62.6	62.6	62.6	96	61.4	0	0	---	0.00	29.694 
05:55	62.6	62.6	62.6	97	61.7	0	0	---	0.00	29.694 
06:00	62.6	62.6	62.6	97	61.7	0	0	---	0.00	29.698 
06:05	62.6	62.6	62.6	97	61.7	0	0	---	0.00	29.698 
06:10	62.6	62.6	62.6	97	61.7	0	0	---	0.00	29.698 
06:15	62.4	62.4	62.4	97	61.5	0	0	---	0.00	29.704 
06:20	62.6	62.6	62.6	97	61.7	0	0	---	0.00	29.704 
06:25	62.6	62.6	62.6	97	61.7	0	0	---	0.00	29.704 
06:30	62.7	62.7	62.7	97	61.8	0	0	---	0.00	29.705 
06:35	62.7	62.7	62.7	97	61.8	0	0	---	0.00	29.705 
06:40	62.9	62.9	62.9	97	62.0	0	0	---	0.00	29.705 
06:45	62.9	62.9	62.9	97	62.0	0	1	0	0.00	29.715 
06:50	63.2	63.2	63.2	97	62.3	0	1	0	0.00	29.715 
06:55	63.7	63.7	63.7	97	62.8	0	0	---	0.00	29.715 
07:00	64.0	64.0	64.0	97	63.1	0	0	---	0.00	29.726 
07:05	64.3	64.3	64.3	97	63.4	0	1	0	0.00	29.726 
07:10	64.8	64.8	64.8	97	63.9	0	0	---	0.00	29.726 
07:15	65.0	65.0	65.0	97	64.1	0	1	22	0.00	29.739 
07:20	65.2	65.2	65.2	97	64.3	0	0	---	0.00	29.739 
07:25	65.3	65.3	65.3	97	64.4	0	0	---	0.00	29.739 
07:30	65.5	65.5	65.5	97	64.6	0	0	---	0.00	29.739 
07:35	65.6	65.6	65.6	97	64.7	0	0	---	0.00	29.739 
07:40	65.8	65.8	65.8	97	64.9	0	1	0	0.00	29.739 
07:45	66.0	66.0	66.0	97	65.1	0	0	---	0.00	29.748 
07:50	66.1	66.1	66.1	97	65.2	0	1	0	0.00	29.748 
07:55	66.3	66.3	66.3	97	65.4	0	1	0	0.00	29.748 
08:00	66.3	66.3	66.3	97	65.4	0	1	0	0.00	29.751 
08:05	66.4	66.4	66.4	97	65.5	0	0	---	0.00	29.751 
08:10	66.6	66.6	66.6	97	65.7	0	0	---	0.00	29.751 
08:15	66.8	66.8	66.8	97	65.9	0	0	---	0.00	29.753 
08:20	66.9	66.9	66.9	97	66.0	0	0	---	0.00	29.753 
08:25	66.9	66.9	66.9	97	66.0	0	1	0	0.00	29.753 
08:30	67.1	67.1	67.1	97	66.2	0	1	0	0.00	29.753 
08:35	67.1	67.1	67.1	97	66.2	0	1	0	0.00	29.753 
08:40	67.3	67.3	67.3	97	66.4	0	1	0	0.00	29.753 
08:45	67.4	67.4	67.4	97	66.5	0	1	0	0.00	29.756 
08:50	67.6	67.6	67.6	97	66.7	0	0	---	0.00	29.756 
08:55	67.8	67.8	67.8	97	66.9	0	1	0	0.00	29.756 
09:00	67.6	67.6	67.6	97	66.7	0	1	0	0.00	29.765 
09:05	67.8	67.8	67.8	97	66.9	0	1	0	0.00	29.765 
09:10	67.9	67.9	67.9	97	67.0	0	2	0	0.00	29.765 
09:15	67.8	67.8	67.8	97	66.9	0	2	0	0.00	29.768 
09:20	67.9	67.9	67.9	97	67.0	0	1	0	0.00	29.768 
09:25	67.9	67.9	67.9	97	67.0	0	2	135	0.00	29.768 
09:30	67.9	67.9	67.9	97	67.0	0	1	135	0.00	29.765 
09:35	68.3	68.3	68.3	97	67.4	0	0	---	0.00	29.765 
09:40	68.4	68.4	68.4	97	67.5	0	0	---	0.00	29.765 
09:45	68.6	68.6	68.6	97	67.7	0	1	135	0.00	29.765 
09:50	68.8	68.8	68.8	96	67.6	0	1	135	0.00	29.765 
09:55	68.8	68.8	68.8	96	67.6	1	2	0	0.00	29.765 
10:00	69.1	69.1	69.1	96	67.9	0	2	0	0.00	29.766 
10:05	69.4	69.4	69.4	96	68.2	0	1	0	0.00	29.766 
10:10	69.6	69.6	69.6	95	68.1	0	1	0	0.00	29.766 
10:15	69.6	69.6	69.6	94	67.8	1	2	0	0.00	29.764 
10:20	69.8	69.8	69.8	94	68.0	0	1	0	0.00	29.764 
10:25	70.1	70.1	70.1	93	68.0	0	2	0	0.00	29.764 
10:30	70.4	70.4	70.4	92	68.0	0	1	0	0.00	29.762 
10:35	70.6	70.6	70.6	91	67.8	0	2	0	0.00	29.762 
10:40	70.6	70.6	70.6	90	67.5	0	1	0	0.00	29.762 
10:45	70.6	70.6	70.6	89	67.2	0	2	0	0.00	29.759 
10:50	70.8	70.8	70.8	88	67.1	0	2	0	0.00	29.759 
10:55	70.9	70.9	70.9	88	67.2	0	1	0	0.00	29.759 
11:00	71.5	71.5	71.5	88	67.7	0	1	0	0.00	29.755 
11:05	72.1	72.1	72.1	88	68.3	0	2	0	0.00	29.755 
11:10	72.5	72.5	72.5	85	67.7	1	3	338	0.00	29.755 
11:15	72.8	72.8	72.8	84	67.7	0	2	315	0.00	29.754 
11:20	72.8	72.8	72.8	82	67.0	0	2	315	0.00	29.754 
11:25	73.0	73.0	73.0	82	67.2	0	2	315	0.00	29.754 
11:30	73.2	73.2	73.2	82	67.4	0	2	315	0.00	29.749 
11:35	73.7	73.7	73.7	81	67.5	1	3	315	0.00	29.749 
11:40	73.9	73.9	73.9	80	67.3	1	4	292	0.00	29.749 
11:45	73.9	73.9	73.9	80	67.3	0	2	292	0.00	29.748 
11:50	74.0	74.0	74.0	80	67.4	0	2	292	0.00	29.748 
11:55	74.0	74.0	74.0	79	67.1	0	1	292	0.00	29.748 
12:00	74.0	74.0	74.0	79	67.1	0	1	292	0.00	29.749 
12:05	74.4	74.4	74.4	79	67.4	0	3	292	0.00	29.749 
12:10	74.7	74.7	74.7	77	67.0	0	3	292	0.00	29.749 
12:15	75.1	75.1	76.1	77	67.4	0	1	315	0.00	29.746 
12:20	75.3	75.3	76.5	75	66.8	0	2	315	0.00	29.746 
12:25	75.4	75.4	76.7	74	66.5	0	2	315	0.00	29.746 
12:30	75.6	75.6	77.0	73	66.3	1	2	315	0.00	29.742 
12:35	76.0	76.0	77.3	76	67.9	0	2	315	0.00	29.742 
12:40	76.3	76.3	77.7	75	67.8	0	2	315	0.00	29.742 
12:45	76.7	76.7	78.3	73	67.4	0	2	315	0.00	29.739 
12:50	77.0	77.0	78.8	69	66.0	0	2	315	0.00	29.739 
12:55	77.2	77.2	79.0	71	67.0	0	3	315	0.00	29.739 
13:00	77.6	77.6	79.5	68	66.2	1	3	112	0.00	29.742 
13:05	77.9	77.9	79.8	68	66.5	1	2	0	0.00	29.742 
13:10	77.6	77.6	79.5	69	66.6	1	3	292	0.00	29.742 
13:15	77.4	77.4	79.2	69	66.4	0	2	292	0.00	29.746 
13:20	77.2	77.2	79.0	69	66.2	0	2	315	0.00	29.746 
13:25	76.8	76.8	78.6	65	64.1	2	3	315	0.00	29.746 
13:30	76.8	76.8	78.6	66	64.6	1	3	315	0.00	29.749 
13:35	77.2	77.2	79.0	66	64.9	0	2	315	0.00	29.749 
13:40	77.4	77.4	79.2	67	65.6	1	3	315	0.00	29.749 
13:45	77.2	77.2	79.0	66	64.9	1	4	292	0.00	29.749 
13:50	77.0	77.0	78.8	66	64.8	1	3	292	0.00	29.749 
13:55	76.7	76.7	78.5	66	64.5	1	5	315	0.00	29.749 
14:00	76.5	76.5	78.2	69	65.6	0	1	315	0.00	29.749 
14:05	77.2	77.2	79.0	67	65.4	1	4	315	0.00	29.749 
14:10	77.9	77.9	79.7	65	65.2	1	4	270	0.00	29.749 
14:15	78.3	78.3	80.1	63	64.6	1	3	292	0.00	29.750 
14:20	78.3	78.3	80.1	62	64.2	1	3	338	0.00	29.750 
14:25	77.9	77.9	79.7	63	64.3	1	3	270	0.00	29.750 
14:30	77.9	77.9	79.6	62	63.8	2	5	338	0.00	29.751 
14:35	77.9	77.9	79.6	62	63.8	2	4	315	0.00	29.751 
14:40	77.7	77.7	79.5	63	64.1	1	3	270	0.00	29.751 
14:45	77.6	77.6	79.4	63	64.0	1	4	292	0.00	29.752 
14:50	77.6	77.6	79.3	61	63.1	1	4	270	0.00	29.752 
14:55	77.7	77.7	79.4	62	63.6	1	2	270	0.00	29.752 
15:00	77.9	77.9	79.7	64	64.7	1	3	270	0.00	29.756 
15:05	78.1	78.1	79.8	61	63.5	1	3	270	0.00	29.756 
15:10	77.7	77.7	79.4	62	63.6	2	5	292	0.00	29.756 
15:15	77.6	77.6	79.4	63	64.0	1	4	270	0.00	29.764 
15:20	77.7	77.7	79.4	62	63.6	1	3	292	0.00	29.764 
15:25	77.9	77.9	79.7	64	64.7	1	3	292	0.00	29.764 
15:30	78.1	78.1	79.9	64	64.9	1	6	292	0.00	29.763 
15:35	78.1	78.1	79.9	62	64.0	1	4	248	0.00	29.763 
15:40	77.9	77.9	79.6	61	63.3	1	4	292	0.00	29.763 
15:45	77.9	77.9	79.6	62	63.8	1	3	315	0.00	29.762 
15:50	77.9	77.9	79.6	62	63.8	1	4	315	0.00	29.762 
15:55	77.9	77.9	79.6	60	62.9	2	4	315	0.00	29.762 
16:00	77.7	77.7	79.4	60	62.7	1	4	315	0.00	29.752 
16:05	77.7	77.7	79.4	61	63.2	1	4	315	0.00	29.752 
16:10	77.9	77.9	79.6	62	63.8	1	3	315	0.00	29.752 
16:15	78.1	78.1	79.9	63	64.5	1	2	315	0.00	29.750 
16:20	77.7	77.7	79.5	64	64.5	1	4	315	0.00	29.750 
16:25	77.6	77.6	79.4	63	64.0	1	3	315	0.00	29.750 
16:30	77.7	77.7	79.5	64	64.5	1	4	338	0.00	29.750 
16:35	77.9	77.9	79.6	61	63.3	1	3	338	0.00	29.750 
16:40	77.9	77.9	79.6	62	63.8	1	3	270	0.00	29.750 
16:45	77.9	77.9	79.6	62	63.8	1	3	292	0.00	29.749 
16:50	77.9	77.9	79.7	63	64.3	0	2	292	0.00	29.749 
16:55	77.9	77.9	79.6	62	63.8	1	2	292	0.00	29.749 
17:00	77.9	77.9	79.6	60	62.9	0	2	292	0.00	29.749 
17:05	77.9	77.9	79.6	62	63.8	0	2	292	0.00	29.749 
17:10	78.1	78.1	79.8	60	63.1	0	2	292	0.00	29.749 
17:15	78.5	78.5	80.2	61	63.9	0	2	292	0.00	29.746 
17:20	78.6	78.6	80.3	61	64.0	1	3	315	0.00	29.746 
17:25	78.6	78.6	80.1	58	62.6	2	4	315	0.00	29.746 
17:30	78.6	78.6	80.1	58	62.6	1	4	292	0.00	29.748 
17:35	78.1	78.1	79.8	61	63.5	0	2	292	0.00	29.748 
17:40	78.1	78.1	79.8	60	63.1	1	3	292	0.00	29.748 
17:45	78.1	78.1	79.7	59	62.6	0	2	292	0.00	29.746 
17:50	77.6	77.6	79.3	60	62.6	0	2	292	0.00	29.746 
17:55	77.2	77.2	79.0	61	62.7	1	4	315	0.00	29.746 
18:00	77.0	77.0	78.8	61	62.5	0	2	315	0.00	29.749 
18:05	76.8	76.8	78.6	61	62.3	0	1	315	0.00	29.749 
18:10	77.2	77.2	79.0	62	63.2	0	2	315	0.00	29.749 
18:15	77.4	77.4	79.1	58	61.4	0	1	22	0.00	29.745 
18:20	77.6	77.6	79.3	60	62.6	0	2	270	0.00	29.745 
18:25	77.6	77.6	79.3	59	62.1	1	3	270	0.00	29.745 
18:30	77.7	77.7	79.3	58	61.7	0	3	270	0.00	29.745 
18:35	77.7	77.7	79.3	58	61.7	1	4	270	0.00	29.745 
18:40	77.7	77.7	79.3	58	61.7	1	3	292	0.00	29.745 
18:45	77.7	77.7	79.3	58	61.7	1	3	292	0.00	29.747 
18:50	77.7	77.7	79.4	59	62.2	1	3	292	0.00	29.747 
18:55	77.6	77.6	79.2	58	61.6	0	1	292	0.00	29.747 
19:00	77.6	77.6	79.3	60	62.6	0	1	292	0.00	29.746 
19:05	77.6	77.6	79.3	60	62.6	0	2	292	0.00	29.746 
19:10	77.4	77.4	79.1	57	61.0	1	4	292	0.00	29.746 
19:15	77.2	77.2	78.9	58	61.3	0	1	292	0.00	29.748 
19:20	77.2	77.2	78.9	59	61.7	0	1	292	0.00	29.748 
19:25	77.2	77.2	78.9	58	61.3	1	3	292	0.00	29.748 
19:30	77.2	77.2	78.9	60	62.2	0	2	0	0.00	29.749 
19:35	77.2	77.2	78.9	58	61.3	1	3	292	0.00	29.749 
19:40	77.0	77.0	78.8	58	61.1	0	1	292	0.00	29.749 
19:45	77.0	77.0	78.7	57	60.6	1	2	292	0.00	29.752 
19:50	76.8	76.8	78.6	59	61.4	0	2	338	0.00	29.752 
19:55	76.7	76.7	78.5	58	60.8	0	1	338	0.00	29.752 
20:00	76.5	76.5	78.4	58	60.6	0	1	338	0.00	29.754 
20:05	76.3	76.3	78.2	58	60.4	0	1	338	0.00	29.754 
20:10	76.1	76.1	78.1	59	60.7	0	1	338	0.00	29.754 
20:15	76.0	76.0	78.0	60	61.1	0	1	338	0.00	29.755 
20:20	75.8	75.8	77.9	59	60.4	0	1	338	0.00	29.755 
20:25	75.6	75.6	77.7	60	60.7	0	1	338	0.00	29.755 
20:30	75.3	75.3	77.5	61	60.9	0	1	338	0.00	29.760 
20:35	75.1	75.1	77.4	61	60.7	0	1	338	0.00	29.760 
20:40	74.9	74.9	74.9	62	61.0	0	1	338	0.00	29.760 
20:45	74.6	74.6	74.6	62	60.7	0	0	---	0.00	29.763 
20:50	74.2	74.2	74.2	63	60.8	0	0	---	0.00	29.763 
20:55	74.0	74.0	74.0	64	61.0	0	0	---	0.00	29.763 
21:00	73.7	73.7	73.7	64	60.7	0	0	---	0.00	29.763 
21:05	73.3	73.3	73.3	65	60.8	0	0	---	0.00	29.763 
21:10	73.0	73.0	73.0	65	60.5	0	0	---	0.00	29.763 
21:15	72.7	72.7	72.7	67	61.1	0	0	---	0.00	29.766 
21:20	72.1	72.1	72.1	68	60.9	0	0	---	0.00	29.766 
21:25	71.8	71.8	71.8	69	61.1	0	0	---	0.00	29.766 
21:30	71.5	71.5	71.5	70	61.2	0	0	---	0.00	29.778 
21:35	71.1	71.1	71.1	70	60.8	0	0	---	0.00	29.778 
21:40	70.6	70.6	70.6	71	60.7	0	0	---	0.00	29.778 
21:45	70.3	70.3	70.3	73	61.2	0	0	---	0.00	29.783 
21:50	69.9	69.9	69.9	74	61.2	0	0	---	0.00	29.783 
21:55	69.6	69.6	69.6	75	61.3	0	0	---	0.00	29.783 
22:00	69.3	69.3	69.3	76	61.4	0	0	---	0.00	29.785 
22:05	68.9	68.9	68.9	77	61.4	0	0	---	0.00	29.785 
22:10	68.8	68.8	68.8	77	61.3	0	0	---	0.00	29.785 
22:15	68.4	68.4	68.4	78	61.3	0	0	---	0.00	29.793 
22:20	68.3	68.3	68.3	79	61.5	0	0	---	0.00	29.793 
22:25	68.1	68.1	68.1	80	61.7	0	0	---	0.00	29.793 
22:30	67.8	67.8	67.8	81	61.7	0	0	---	0.00	29.798 
22:35	67.6	67.6	67.6	81	61.6	0	0	---	0.00	29.798 
22:40	67.3	67.3	67.3	82	61.6	0	0	---	0.00	29.798 
22:45	67.1	67.1	67.1	83	61.8	0	0	---	0.00	29.804 
22:50	66.9	66.9	66.9	83	61.6	0	0	---	0.00	29.804 
22:55	66.6	66.6	66.6	84	61.6	0	0	---	0.00	29.804 
23:00	66.4	66.4	66.4	84	61.4	0	0	---	0.00	29.813 
23:05	66.3	66.3	66.3	84	61.3	0	0	---	0.00	29.813 
23:10	66.0	66.0	66.0	85	61.4	0	0	---	0.00	29.813 
23:15	65.8	65.8	65.8	85	61.2	0	0	---	0.00	29.812 
23:20	65.6	65.6	65.6	86	61.3	0	0	---	0.00	29.812 
23:25	65.5	65.5	65.5	87	61.5	0	0	---	0.00	29.812 
23:30	65.3	65.3	65.3	87	61.3	0	0	---	0.00	29.815 
23:35	65.2	65.2	65.2	87	61.2	0	0	---	0.00	29.815 
23:40	65.2	65.2	65.2	88	61.6	0	0	---	0.00	29.815 
23:45	65.0	65.0	65.0	88	61.4	0	0	---	0.00	29.817 
23:50	64.8	64.8	64.8	88	61.2	0	0	---	0.00	29.817 
23:55	65.0	65.0	65.0	89	61.7	0	1	338	0.00	29.817 

CoCoRaHS
IN-AL-39
A2 Web Hosting
Creative Commons License
GoDaddy
search engine by freefind advanced

loaded 2018-11-15 05:06:47 • last modified 2010-11-18 10:43:29
Privacy PolicyDisclaimer
• wx.awcolley.com is powered by PmWiki v.2002016 •
• all content (unless otherwise noted) © 2018 A W Colley